Pagrindinis puslapis
METAR-TAF:

METAR-TAF

Oro uostai :

Saint Catherine, Egiptas

platuma: 28-41-07N, ilguma: 034-03-45E, Aukštis: 1331 m

Dabartinis oras

Ataskaita buvo paskelbta 1 valandą ir 10 minutes, ne 23:00 UTC
Vėjas 8 kt iš Vakarų/Šiaurės Vakarų
Temperatūra 16°C
Drėgmė 59%
Slėgis 1022 hPa
Matomumas 10 km arba daugiau
nėra debesų žemiau 1500 m ir nėra kamuolinių lietaus debesų

METAR: HESC 232300Z 30008KT CAVOK 16/08 Q1022 NOSIG

Laikas: 02:10 (00:10 UTC)

Prognozė

Ataskaita buvo paskelbta 1 valandą ir 10 minutes, ne 23:00 UTC
Prognozė galioja nuo 24 metu 00 UTC su 25 metu 06 UTC
Vėjas 4 kt nuo kintamojo kryptimis
Matomumas 10 km arba daugiau
nėra debesų žemiau 1500 m ir nėra kamuolinių lietaus debesų
Tapsmas
nuo 24 metu 06 UTC su 24 metu 08 UTC
Vėjas 14 kt iš Šiaurės/Šiaurės Vakarų
Tapsmas
nuo 24 metu 21 UTC su 24 metu 23 UTC
Vėjas 3 kt nuo kintamojo kryptimis

TAF: HESC 232300Z 2400/2506 VRB04KT CAVOK BECMG 2406/2408 34014KT BECMG 2421/2423 VRB03KT

Orai ataskaitas ir orų prognozės (METAR, TAF).

turimą stotys yra geltonos ir raudonos taškus žemėlapyje.

Perkelti pele per norėdami pamatyti stoties vardą.

Tada spustelėkite, norėdami matyti oro stebėjimo ir prognozės.

Norėdami pakeisti žemėlapį: spustelėkite ant žalios mygtukų su juodo kryžiaus žemyn,; žalią mygtuką su brūkšneliu, jei norite nutolinti; arba žalių rodyklių gretimoms žemėlapius.


METAR-TAF: